sensor_id;sensor_type;location;lat;lon;timestamp;pressure;altitude;pressure_sealevel;temperature
71649;BMP180;59492;45.638;11.714;2022-12-31T00:02:12;101967.60;;;19.60
71649;BMP180;59492;45.638;11.714;2022-12-31T00:04:38;101968.00;;;19.60
71649;BMP180;59492;45.638;11.714;2022-12-31T00:07:03;101972.20;;;19.58
71649;BMP180;59492;45.638;11.714;2022-12-31T00:09:29;101977.40;;;19.50
71649;BMP180;59492;45.638;11.714;2022-12-31T00:11:54;101977.20;;;19.50
71649;BMP180;59492;45.638;11.714;2022-12-31T00:14:20;101976.00;;;19.50
71649;BMP180;59492;45.638;11.714;2022-12-31T00:16:45;101977.80;;;19.44
71649;BMP180;59492;45.638;11.714;2022-12-31T00:19:11;101979.20;;;19.40
71649;BMP180;59492;45.638;11.714;2022-12-31T00:21:37;101982.00;;;19.48
71649;BMP180;59492;45.638;11.714;2022-12-31T00:24:04;101980.60;;;19.50
71649;BMP180;59492;45.638;11.714;2022-12-31T00:26:32;101986.80;;;19.40
71649;BMP180;59492;45.638;11.714;2022-12-31T00:28:59;101992.00;;;19.40
71649;BMP180;59492;45.638;11.714;2022-12-31T00:31:29;101984.80;;;19.40
71649;BMP180;59492;45.638;11.714;2022-12-31T00:33:56;101989.20;;;19.36
71649;BMP180;59492;45.638;11.714;2022-12-31T00:36:27;101996.40;;;19.30
71649;BMP180;59492;45.638;11.714;2022-12-31T00:38:54;101992.20;;;19.30
71649;BMP180;59492;45.638;11.714;2022-12-31T00:41:21;101997.20;;;19.30
71649;BMP180;59492;45.638;11.714;2022-12-31T00:43:47;101997.40;;;19.34
71649;BMP180;59492;45.638;11.714;2022-12-31T00:46:13;102007.00;;;19.30
71649;BMP180;59492;45.638;11.714;2022-12-31T00:48:40;102001.80;;;19.30
71649;BMP180;59492;45.638;11.714;2022-12-31T00:51:08;102006.60;;;19.28
71649;BMP180;59492;45.638;11.714;2022-12-31T00:53:35;102009.60;;;19.22
71649;BMP180;59492;45.638;11.714;2022-12-31T00:56:03;102011.00;;;19.20
71649;BMP180;59492;45.638;11.714;2022-12-31T00:58:29;102009.20;;;19.20
71649;BMP180;59492;45.638;11.714;2022-12-31T01:00:55;102003.20;;;19.20
71649;BMP180;59492;45.638;11.714;2022-12-31T01:03:21;102002.60;;;19.30
71649;BMP180;59492;45.638;11.714;2022-12-31T01:05:47;102005.80;;;19.24
71649;BMP180;59492;45.638;11.714;2022-12-31T01:08:12;102009.40;;;19.20
71649;BMP180;59492;45.638;11.714;2022-12-31T01:10:38;102012.40;;;19.20
71649;BMP180;59492;45.638;11.714;2022-12-31T01:13:22;102015.40;;;19.10
71649;BMP180;59492;45.638;11.714;2022-12-31T01:15:48;102024.40;;;19.10
71649;BMP180;59492;45.638;11.714;2022-12-31T01:18:14;102030.60;;;19.10
71649;BMP180;59492;45.638;11.714;2022-12-31T01:20:41;102030.20;;;19.14
71649;BMP180;59492;45.638;11.714;2022-12-31T01:23:09;102032.20;;;19.20
71649;BMP180;59492;45.638;11.714;2022-12-31T01:25:37;102040.80;;;19.14
71649;BMP180;59492;45.638;11.714;2022-12-31T01:28:04;102051.00;;;19.10
71649;BMP180;59492;45.638;11.714;2022-12-31T01:30:30;102046.00;;;19.10
71649;BMP180;59492;45.638;11.714;2022-12-31T01:32:56;102053.60;;;19.08
71649;BMP180;59492;45.638;11.714;2022-12-31T01:35:22;102057.20;;;19.04
71649;BMP180;59492;45.638;11.714;2022-12-31T01:37:48;102049.40;;;19.00
71649;BMP180;59492;45.638;11.714;2022-12-31T01:40:13;102044.80;;;19.08
71649;BMP180;59492;45.638;11.714;2022-12-31T01:42:39;102046.80;;;19.10
71649;BMP180;59492;45.638;11.714;2022-12-31T01:45:09;102047.60;;;19.08
71649;BMP180;59492;45.638;11.714;2022-12-31T01:47:43;102051.60;;;19.00
71649;BMP180;59492;45.638;11.714;2022-12-31T01:50:17;102051.20;;;19.00
71649;BMP180;59492;45.638;11.714;2022-12-31T01:52:47;102051.60;;;18.98
71649;BMP180;59492;45.638;11.714;2022-12-31T01:55:32;102053.80;;;18.94
71649;BMP180;59492;45.638;11.714;2022-12-31T01:58:07;102051.60;;;18.90
71649;BMP180;59492;45.638;11.714;2022-12-31T02:00:34;102050.40;;;18.98
71649;BMP180;59492;45.638;11.714;2022-12-31T02:03:00;102054.80;;;19.00
71649;BMP180;59492;45.638;11.714;2022-12-31T02:05:34;102055.40;;;19.00
71649;BMP180;59492;45.638;11.714;2022-12-31T02:08:02;102055.20;;;18.90
71649;BMP180;59492;45.638;11.714;2022-12-31T02:10:27;102058.40;;;18.90
71649;BMP180;59492;45.638;11.714;2022-12-31T02:12:53;102057.80;;;18.90
71649;BMP180;59492;45.638;11.714;2022-12-31T02:15:21;102051.80;;;18.90
71649;BMP180;59492;45.638;11.714;2022-12-31T02:17:54;102063.40;;;18.88
71649;BMP180;59492;45.638;11.714;2022-12-31T02:20:46;102066.40;;;18.90
71649;BMP180;59492;45.638;11.714;2022-12-31T02:25:57;102065.60;;;18.90
71649;BMP180;59492;45.638;11.714;2022-12-31T02:29:04;102063.60;;;18.82
71649;BMP180;59492;45.638;11.714;2022-12-31T02:31:40;102064.20;;;18.80
71649;BMP180;59492;45.638;11.714;2022-12-31T02:34:12;102064.60;;;18.80
71649;BMP180;59492;45.638;11.714;2022-12-31T02:36:44;102064.60;;;18.80
71649;BMP180;59492;45.638;11.714;2022-12-31T02:39:12;102072.40;;;18.80
71649;BMP180;59492;45.638;11.714;2022-12-31T02:41:39;102073.40;;;18.80
71649;BMP180;59492;45.638;11.714;2022-12-31T02:44:29;102069.40;;;18.82
71649;BMP180;59492;45.638;11.714;2022-12-31T02:52:45;102065.80;;;18.74
71649;BMP180;59492;45.638;11.714;2022-12-31T02:57:52;102076.40;;;18.70
71649;BMP180;59492;45.638;11.714;2022-12-31T03:00:20;102076.60;;;18.78
71649;BMP180;59492;45.638;11.714;2022-12-31T03:03:05;102069.00;;;18.80
71649;BMP180;59492;45.638;11.714;2022-12-31T03:05:39;102066.40;;;18.80
71649;BMP180;59492;45.638;11.714;2022-12-31T03:08:06;102070.00;;;18.74
71649;BMP180;59492;45.638;11.714;2022-12-31T03:10:32;102071.60;;;18.72
71649;BMP180;59492;45.638;11.714;2022-12-31T03:12:59;102070.80;;;18.70
71649;BMP180;59492;45.638;11.714;2022-12-31T03:15:30;102075.00;;;18.70
71649;BMP180;59492;45.638;11.714;2022-12-31T03:20:33;102076.20;;;18.70
71649;BMP180;59492;45.638;11.714;2022-12-31T03:23:30;102083.80;;;18.70
71649;BMP180;59492;45.638;11.714;2022-12-31T03:25:57;102084.40;;;18.70
71649;BMP180;59492;45.638;11.714;2022-12-31T03:28:26;102077.40;;;18.70
71649;BMP180;59492;45.638;11.714;2022-12-31T03:30:55;102085.60;;;18.70
71649;BMP180;59492;45.638;11.714;2022-12-31T03:33:22;102093.20;;;18.68
71649;BMP180;59492;45.638;11.714;2022-12-31T03:35:48;102098.20;;;18.66
71649;BMP180;59492;45.638;11.714;2022-12-31T03:38:15;102096.60;;;18.62
71649;BMP180;59492;45.638;11.714;2022-12-31T03:40:44;102101.20;;;18.70
71649;BMP180;59492;45.638;11.714;2022-12-31T03:43:10;102092.40;;;18.70
71649;BMP180;59492;45.638;11.714;2022-12-31T03:45:36;102094.40;;;18.70
71649;BMP180;59492;45.638;11.714;2022-12-31T03:48:03;102089.40;;;18.68
71649;BMP180;59492;45.638;11.714;2022-12-31T03:50:29;102088.60;;;18.60
71649;BMP180;59492;45.638;11.714;2022-12-31T03:52:55;102089.00;;;18.60
71649;BMP180;59492;45.638;11.714;2022-12-31T03:55:21;102092.80;;;18.60
71649;BMP180;59492;45.638;11.714;2022-12-31T03:57:46;102096.60;;;18.60
71649;BMP180;59492;45.638;11.714;2022-12-31T04:00:15;102103.80;;;18.60
71649;BMP180;59492;45.638;11.714;2022-12-31T04:02:42;102106.40;;;18.68
71649;BMP180;59492;45.638;11.714;2022-12-31T04:05:08;102107.20;;;18.66
71649;BMP180;59492;45.638;11.714;2022-12-31T04:07:34;102103.20;;;18.60
71649;BMP180;59492;45.638;11.714;2022-12-31T04:09:59;102101.20;;;18.60
71649;BMP180;59492;45.638;11.714;2022-12-31T04:12:25;102103.20;;;18.60
71649;BMP180;59492;45.638;11.714;2022-12-31T04:14:50;102102.20;;;18.56
71649;BMP180;59492;45.638;11.714;2022-12-31T04:17:16;102098.40;;;18.52
71649;BMP180;59492;45.638;11.714;2022-12-31T04:19:42;102100.40;;;18.60
71649;BMP180;59492;45.638;11.714;2022-12-31T04:22:07;102099.20;;;18.60
71649;BMP180;59492;45.638;11.714;2022-12-31T04:24:33;102097.40;;;18.60
71649;BMP180;59492;45.638;11.714;2022-12-31T04:26:59;102101.80;;;18.56
71649;BMP180;59492;45.638;11.714;2022-12-31T04:29:24;102102.80;;;18.52
71649;BMP180;59492;45.638;11.714;2022-12-31T04:31:50;102090.40;;;18.50
71649;BMP180;59492;45.638;11.714;2022-12-31T04:34:15;102098.40;;;18.50
71649;BMP180;59492;45.638;11.714;2022-12-31T04:36:41;102101.40;;;18.56
71649;BMP180;59492;45.638;11.714;2022-12-31T04:39:07;102107.40;;;18.60
71649;BMP180;59492;45.638;11.714;2022-12-31T04:41:32;102110.40;;;18.58
71649;BMP180;59492;45.638;11.714;2022-12-31T04:43:59;102122.00;;;18.50
71649;BMP180;59492;45.638;11.714;2022-12-31T04:46:30;102138.60;;;18.50
71649;BMP180;59492;45.638;11.714;2022-12-31T04:48:57;102138.00;;;18.50
71649;BMP180;59492;45.638;11.714;2022-12-31T04:51:23;102149.00;;;18.50
71649;BMP180;59492;45.638;11.714;2022-12-31T04:53:49;102143.60;;;18.50
71649;BMP180;59492;45.638;11.714;2022-12-31T04:56:15;102141.20;;;18.50
71649;BMP180;59492;45.638;11.714;2022-12-31T04:58:41;102143.60;;;18.50
71649;BMP180;59492;45.638;11.714;2022-12-31T05:01:08;102149.80;;;18.50
71649;BMP180;59492;45.638;11.714;2022-12-31T05:03:33;102158.20;;;18.50
71649;BMP180;59492;45.638;11.714;2022-12-31T05:06:01;102157.00;;;18.50
71649;BMP180;59492;45.638;11.714;2022-12-31T05:08:28;102156.80;;;18.46
71649;BMP180;59492;45.638;11.714;2022-12-31T05:10:54;102160.80;;;18.44
71649;BMP180;59492;45.638;11.714;2022-12-31T05:13:20;102163.40;;;18.40
71649;BMP180;59492;45.638;11.714;2022-12-31T05:15:46;102163.60;;;18.48
71649;BMP180;59492;45.638;11.714;2022-12-31T05:18:12;102170.60;;;18.50
71649;BMP180;59492;45.638;11.714;2022-12-31T05:20:38;102170.40;;;18.50
71649;BMP180;59492;45.638;11.714;2022-12-31T05:23:04;102164.80;;;18.48
71649;BMP180;59492;45.638;11.714;2022-12-31T05:25:31;102166.80;;;18.40
71649;BMP180;59492;45.638;11.714;2022-12-31T05:27:57;102167.60;;;18.40
71649;BMP180;59492;45.638;11.714;2022-12-31T05:30:23;102181.20;;;18.40
71649;BMP180;59492;45.638;11.714;2022-12-31T05:32:49;102183.40;;;18.40
71649;BMP180;59492;45.638;11.714;2022-12-31T05:35:15;102191.40;;;18.40
71649;BMP180;59492;45.638;11.714;2022-12-31T05:37:40;102202.40;;;18.50
71649;BMP180;59492;45.638;11.714;2022-12-31T05:40:06;102207.20;;;18.44
71649;BMP180;59492;45.638;11.714;2022-12-31T05:42:32;102210.80;;;18.40
71649;BMP180;59492;45.638;11.714;2022-12-31T05:44:58;102219.40;;;18.40
71649;BMP180;59492;45.638;11.714;2022-12-31T05:47:24;102223.00;;;18.40
71649;BMP180;59492;45.638;11.714;2022-12-31T05:49:49;102223.60;;;18.40
71649;BMP180;59492;45.638;11.714;2022-12-31T05:52:15;102224.60;;;18.40
71649;BMP180;59492;45.638;11.714;2022-12-31T05:54:41;102231.20;;;18.40
71649;BMP180;59492;45.638;11.714;2022-12-31T05:57:07;102236.80;;;18.48
71649;BMP180;59492;45.638;11.714;2022-12-31T05:59:33;102230.80;;;18.44
71649;BMP180;59492;45.638;11.714;2022-12-31T06:01:58;102232.40;;;18.40
71649;BMP180;59492;45.638;11.714;2022-12-31T06:04:24;102236.60;;;18.40
71649;BMP180;59492;45.638;11.714;2022-12-31T06:06:50;102238.40;;;18.40
71649;BMP180;59492;45.638;11.714;2022-12-31T06:09:18;102243.00;;;18.40
71649;BMP180;59492;45.638;11.714;2022-12-31T06:11:45;102252.20;;;18.36
71649;BMP180;59492;45.638;11.714;2022-12-31T06:14:11;102267.80;;;18.36
71649;BMP180;59492;45.638;11.714;2022-12-31T06:16:38;102272.60;;;18.40
71649;BMP180;59492;45.638;11.714;2022-12-31T06:19:04;102271.80;;;18.40
71649;BMP180;59492;45.638;11.714;2022-12-31T06:21:29;102278.00;;;18.40
71649;BMP180;59492;45.638;11.714;2022-12-31T06:23:55;102282.40;;;18.40
71649;BMP180;59492;45.638;11.714;2022-12-31T06:26:21;102284.00;;;18.40
71649;BMP180;59492;45.638;11.714;2022-12-31T06:28:46;102281.60;;;18.32
71649;BMP180;59492;45.638;11.714;2022-12-31T06:31:13;102285.00;;;18.32
71649;BMP180;59492;45.638;11.714;2022-12-31T06:33:39;102286.60;;;18.30
71649;BMP180;59492;45.638;11.714;2022-12-31T06:36:07;102290.00;;;18.40
71649;BMP180;59492;45.638;11.714;2022-12-31T06:38:36;102287.80;;;18.40
71649;BMP180;59492;45.638;11.714;2022-12-31T06:41:03;102286.80;;;18.40
71649;BMP180;59492;45.638;11.714;2022-12-31T06:43:29;102292.60;;;18.34
71649;BMP180;59492;45.638;11.714;2022-12-31T06:45:54;102291.40;;;18.30
71649;BMP180;59492;45.638;11.714;2022-12-31T06:48:20;102294.20;;;18.30
71649;BMP180;59492;45.638;11.714;2022-12-31T06:50:45;102299.20;;;18.30
71649;BMP180;59492;45.638;11.714;2022-12-31T06:53:11;102303.00;;;18.30
71649;BMP180;59492;45.638;11.714;2022-12-31T06:55:37;102305.00;;;18.30
71649;BMP180;59492;45.638;11.714;2022-12-31T06:58:08;102307.20;;;18.34
71649;BMP180;59492;45.638;11.714;2022-12-31T07:00:52;102314.60;;;18.30
71649;BMP180;59492;45.638;11.714;2022-12-31T07:06:01;102313.40;;;18.30
71649;BMP180;59492;45.638;11.714;2022-12-31T07:08:44;102321.40;;;18.26
71649;BMP180;59492;45.638;11.714;2022-12-31T07:11:19;102321.20;;;18.22
71649;BMP180;59492;45.638;11.714;2022-12-31T07:14:02;102323.20;;;18.26
71649;BMP180;59492;45.638;11.714;2022-12-31T07:21:52;102342.20;;;18.30
71649;BMP180;59492;45.638;11.714;2022-12-31T07:24:19;102345.80;;;18.30
71649;BMP180;59492;45.638;11.714;2022-12-31T07:26:56;102343.80;;;18.30
71649;BMP180;59492;45.638;11.714;2022-12-31T07:29:49;102347.40;;;18.26
71649;BMP180;59492;45.638;11.714;2022-12-31T07:35:24;102353.00;;;18.28
71649;BMP180;59492;45.638;11.714;2022-12-31T07:43:12;102354.80;;;18.30
71649;BMP180;59492;45.638;11.714;2022-12-31T07:46:20;102362.60;;;18.30
71649;BMP180;59492;45.638;11.714;2022-12-31T07:48:44;102361.80;;;18.22
71649;BMP180;59492;45.638;11.714;2022-12-31T07:51:12;102361.40;;;18.30
71649;BMP180;59492;45.638;11.714;2022-12-31T07:53:41;102366.80;;;18.28
71649;BMP180;59492;45.638;11.714;2022-12-31T07:56:09;102375.40;;;18.28
71649;BMP180;59492;45.638;11.714;2022-12-31T07:59:13;102390.20;;;18.30
71649;BMP180;59492;45.638;11.714;2022-12-31T08:01:45;102390.80;;;18.30
71649;BMP180;59492;45.638;11.714;2022-12-31T08:07:35;102395.20;;;18.28
71649;BMP180;59492;45.638;11.714;2022-12-31T08:12:31;102401.20;;;18.30
71649;BMP180;59492;45.638;11.714;2022-12-31T08:14:58;102398.00;;;18.26
71649;BMP180;59492;45.638;11.714;2022-12-31T08:17:26;102393.60;;;18.28
71649;BMP180;59492;45.638;11.714;2022-12-31T08:19:55;102388.80;;;18.30
71649;BMP180;59492;45.638;11.714;2022-12-31T08:25:25;102387.20;;;18.30
71649;BMP180;59492;45.638;11.714;2022-12-31T08:36:09;102397.80;;;18.28
71649;BMP180;59492;45.638;11.714;2022-12-31T08:38:55;102392.60;;;18.30
71649;BMP180;59492;45.638;11.714;2022-12-31T08:41:25;102399.60;;;18.30
71649;BMP180;59492;45.638;11.714;2022-12-31T08:48:55;102408.00;;;18.30
71649;BMP180;59492;45.638;11.714;2022-12-31T08:51:23;102407.80;;;18.30
71649;BMP180;59492;45.638;11.714;2022-12-31T08:53:49;102410.80;;;18.28
71649;BMP180;59492;45.638;11.714;2022-12-31T09:01:23;102425.60;;;18.30
71649;BMP180;59492;45.638;11.714;2022-12-31T09:06:28;102430.60;;;18.30
71649;BMP180;59492;45.638;11.714;2022-12-31T09:14:42;102441.40;;;18.20
71649;BMP180;59492;45.638;11.714;2022-12-31T09:17:41;102441.20;;;18.20
71649;BMP180;59492;45.638;11.714;2022-12-31T09:22:42;102440.00;;;18.26
71649;BMP180;59492;45.638;11.714;2022-12-31T09:25:17;102441.80;;;18.28
71649;BMP180;59492;45.638;11.714;2022-12-31T09:28:01;102434.80;;;18.22
71649;BMP180;59492;45.638;11.714;2022-12-31T09:30:36;102428.40;;;18.20
71649;BMP180;59492;45.638;11.714;2022-12-31T09:33:20;102428.40;;;18.20
71649;BMP180;59492;45.638;11.714;2022-12-31T09:35:53;102429.20;;;18.20
71649;BMP180;59492;45.638;11.714;2022-12-31T09:52:07;102441.80;;;18.30
71649;BMP180;59492;45.638;11.714;2022-12-31T09:58:14;102440.40;;;18.20
71649;BMP180;59492;45.638;11.714;2022-12-31T10:06:26;102439.60;;;18.40
71649;BMP180;59492;45.638;11.714;2022-12-31T10:09:20;102444.00;;;18.40
71649;BMP180;59492;45.638;11.714;2022-12-31T10:31:12;102440.40;;;18.40
71649;BMP180;59492;45.638;11.714;2022-12-31T10:36:47;102430.00;;;18.36
71649;BMP180;59492;45.638;11.714;2022-12-31T10:41:51;102439.40;;;18.30
71649;BMP180;59492;45.638;11.714;2022-12-31T10:50:00;102437.60;;;18.40
71649;BMP180;59492;45.638;11.714;2022-12-31T11:00:53;102429.20;;;18.30
71649;BMP180;59492;45.638;11.714;2022-12-31T11:12:34;102426.60;;;18.30
71649;BMP180;59492;45.638;11.714;2022-12-31T11:20:38;102411.20;;;18.30
71649;BMP180;59492;45.638;11.714;2022-12-31T11:26:00;102405.00;;;18.30
71649;BMP180;59492;45.638;11.714;2022-12-31T11:28:47;102406.20;;;18.30
71649;BMP180;59492;45.638;11.714;2022-12-31T11:31:39;102409.20;;;18.30
71649;BMP180;59492;45.638;11.714;2022-12-31T11:42:38;102428.40;;;18.22
71649;BMP180;59492;45.638;11.714;2022-12-31T11:47:51;102436.80;;;18.24
71649;BMP180;59492;45.638;11.714;2022-12-31T11:50:37;102434.20;;;18.30
71649;BMP180;59492;45.638;11.714;2022-12-31T11:53:22;102434.60;;;18.30
71649;BMP180;59492;45.638;11.714;2022-12-31T11:56:19;102430.00;;;18.30
71649;BMP180;59492;45.638;11.714;2022-12-31T11:58:50;102425.40;;;18.28
71649;BMP180;59492;45.638;11.714;2022-12-31T12:01:32;102420.00;;;18.30
71649;BMP180;59492;45.638;11.714;2022-12-31T12:04:00;102424.80;;;18.26
71649;BMP180;59492;45.638;11.714;2022-12-31T12:06:29;102420.20;;;18.24
71649;BMP180;59492;45.638;11.714;2022-12-31T12:08:58;102416.20;;;18.26
71649;BMP180;59492;45.638;11.714;2022-12-31T12:11:37;102411.40;;;18.30
71649;BMP180;59492;45.638;11.714;2022-12-31T12:14:36;102423.20;;;18.30
71649;BMP180;59492;45.638;11.714;2022-12-31T12:17:06;102430.80;;;18.30
71649;BMP180;59492;45.638;11.714;2022-12-31T12:19:34;102424.00;;;18.30
71649;BMP180;59492;45.638;11.714;2022-12-31T12:22:12;102416.80;;;18.30
71649;BMP180;59492;45.638;11.714;2022-12-31T12:24:39;102416.20;;;18.30
71649;BMP180;59492;45.638;11.714;2022-12-31T12:27:19;102416.00;;;18.30
71649;BMP180;59492;45.638;11.714;2022-12-31T12:29:45;102416.20;;;18.28
71649;BMP180;59492;45.638;11.714;2022-12-31T12:32:20;102412.00;;;18.30
71649;BMP180;59492;45.638;11.714;2022-12-31T12:34:46;102415.40;;;18.30
71649;BMP180;59492;45.638;11.714;2022-12-31T12:37:30;102413.60;;;18.34
71649;BMP180;59492;45.638;11.714;2022-12-31T12:40:06;102416.40;;;18.30
71649;BMP180;59492;45.638;11.714;2022-12-31T12:42:33;102418.80;;;18.30
71649;BMP180;59492;45.638;11.714;2022-12-31T12:45:12;102418.60;;;18.30
71649;BMP180;59492;45.638;11.714;2022-12-31T12:47:41;102417.00;;;18.30
71649;BMP180;59492;45.638;11.714;2022-12-31T12:50:15;102411.80;;;18.30
71649;BMP180;59492;45.638;11.714;2022-12-31T12:53:09;102408.80;;;18.30
71649;BMP180;59492;45.638;11.714;2022-12-31T13:12:31;102386.00;;;18.30
71649;BMP180;59492;45.638;11.714;2022-12-31T13:24:12;102384.80;;;18.30
71649;BMP180;59492;45.638;11.714;2022-12-31T13:29:29;102380.40;;;18.30
71649;BMP180;59492;45.638;11.714;2022-12-31T13:32:00;102382.40;;;18.40
71649;BMP180;59492;45.638;11.714;2022-12-31T13:34:30;102386.60;;;18.40
71649;BMP180;59492;45.638;11.714;2022-12-31T13:36:59;102392.20;;;18.40
71649;BMP180;59492;45.638;11.714;2022-12-31T13:39:30;102392.00;;;18.36
71649;BMP180;59492;45.638;11.714;2022-12-31T13:42:24;102392.00;;;18.32
71649;BMP180;59492;45.638;11.714;2022-12-31T13:44:58;102388.60;;;18.30
71649;BMP180;59492;45.638;11.714;2022-12-31T13:47:35;102393.40;;;18.30
71649;BMP180;59492;45.638;11.714;2022-12-31T13:50:03;102392.00;;;18.36
71649;BMP180;59492;45.638;11.714;2022-12-31T13:52:44;102387.80;;;18.40
71649;BMP180;59492;45.638;11.714;2022-12-31T13:55:41;102388.40;;;18.40
71649;BMP180;59492;45.638;11.714;2022-12-31T14:00:43;102386.80;;;18.36
71649;BMP180;59492;45.638;11.714;2022-12-31T14:08:52;102401.00;;;18.40
71649;BMP180;59492;45.638;11.714;2022-12-31T14:14:25;102405.20;;;18.46
71649;BMP180;59492;45.638;11.714;2022-12-31T14:17:05;102400.20;;;18.42
71649;BMP180;59492;45.638;11.714;2022-12-31T14:25:54;102408.40;;;18.42
71649;BMP180;59492;45.638;11.714;2022-12-31T14:28:44;102411.60;;;18.46
71649;BMP180;59492;45.638;11.714;2022-12-31T14:37:17;102404.20;;;18.60
71649;BMP180;59492;45.638;11.714;2022-12-31T14:40:01;102405.00;;;18.56
71649;BMP180;59492;45.638;11.714;2022-12-31T14:42:48;102409.00;;;18.60
71649;BMP180;59492;45.638;11.714;2022-12-31T14:45:26;102410.60;;;18.60
71649;BMP180;59492;45.638;11.714;2022-12-31T14:48:03;102419.80;;;18.60
71649;BMP180;59492;45.638;11.714;2022-12-31T14:50:31;102426.80;;;18.70
71649;BMP180;59492;45.638;11.714;2022-12-31T14:55:30;102434.00;;;18.78
71649;BMP180;59492;45.638;11.714;2022-12-31T14:57:58;102434.80;;;18.76
71649;BMP180;59492;45.638;11.714;2022-12-31T15:00:34;102440.60;;;18.80
71649;BMP180;59492;45.638;11.714;2022-12-31T15:03:06;102443.40;;;18.80
71649;BMP180;59492;45.638;11.714;2022-12-31T15:05:36;102452.80;;;18.80
71649;BMP180;59492;45.638;11.714;2022-12-31T15:11:21;102455.40;;;18.80
71649;BMP180;59492;45.638;11.714;2022-12-31T15:24:42;102454.60;;;18.92
71649;BMP180;59492;45.638;11.714;2022-12-31T15:29:58;102464.40;;;18.94
71649;BMP180;59492;45.638;11.714;2022-12-31T15:32:35;102469.60;;;19.00
71649;BMP180;59492;45.638;11.714;2022-12-31T15:35:31;102472.80;;;19.02
71649;BMP180;59492;45.638;11.714;2022-12-31T15:40:49;102470.80;;;19.10
71649;BMP180;59492;45.638;11.714;2022-12-31T15:43:36;102466.40;;;19.10
71649;BMP180;59492;45.638;11.714;2022-12-31T15:46:13;102472.00;;;19.08
71649;BMP180;59492;45.638;11.714;2022-12-31T15:48:48;102466.60;;;19.10
71649;BMP180;59492;45.638;11.714;2022-12-31T15:51:21;102465.00;;;19.10
71649;BMP180;59492;45.638;11.714;2022-12-31T15:53:52;102461.20;;;19.10
71649;BMP180;59492;45.638;11.714;2022-12-31T15:56:40;102468.20;;;19.16
71649;BMP180;59492;45.638;11.714;2022-12-31T15:59:14;102471.00;;;19.20
71649;BMP180;59492;45.638;11.714;2022-12-31T16:01:41;102471.60;;;19.20
71649;BMP180;59492;45.638;11.714;2022-12-31T16:04:19;102477.40;;;19.20
71649;BMP180;59492;45.638;11.714;2022-12-31T16:06:46;102485.60;;;19.20
71649;BMP180;59492;45.638;11.714;2022-12-31T16:09:25;102485.20;;;19.20
71649;BMP180;59492;45.638;11.714;2022-12-31T16:11:52;102489.00;;;19.20
71649;BMP180;59492;45.638;11.714;2022-12-31T16:14:34;102489.60;;;19.20
71649;BMP180;59492;45.638;11.714;2022-12-31T16:17:01;102491.60;;;19.20
71649;BMP180;59492;45.638;11.714;2022-12-31T16:19:34;102489.80;;;19.24
71649;BMP180;59492;45.638;11.714;2022-12-31T16:22:05;102493.20;;;19.30
71649;BMP180;59492;45.638;11.714;2022-12-31T16:24:32;102491.60;;;19.30
71649;BMP180;59492;45.638;11.714;2022-12-31T16:27:07;102486.60;;;19.30
71649;BMP180;59492;45.638;11.714;2022-12-31T16:29:41;102493.00;;;19.28
71649;BMP180;59492;45.638;11.714;2022-12-31T16:32:16;102500.80;;;19.28
71649;BMP180;59492;45.638;11.714;2022-12-31T16:34:43;102501.60;;;19.30
71649;BMP180;59492;45.638;11.714;2022-12-31T16:37:21;102505.40;;;19.30
71649;BMP180;59492;45.638;11.714;2022-12-31T16:42:23;102523.40;;;19.40
71649;BMP180;59492;45.638;11.714;2022-12-31T16:44:51;102531.60;;;19.40
71649;BMP180;59492;45.638;11.714;2022-12-31T16:47:38;102535.80;;;19.40
71649;BMP180;59492;45.638;11.714;2022-12-31T16:50:21;102535.60;;;19.40
71649;BMP180;59492;45.638;11.714;2022-12-31T16:52:57;102537.60;;;19.38
71649;BMP180;59492;45.638;11.714;2022-12-31T16:55:26;102537.80;;;19.32
71649;BMP180;59492;45.638;11.714;2022-12-31T16:58:10;102535.40;;;19.30
71649;BMP180;59492;45.638;11.714;2022-12-31T17:00:39;102534.80;;;19.30
71649;BMP180;59492;45.638;11.714;2022-12-31T17:06:12;102538.60;;;19.30
71649;BMP180;59492;45.638;11.714;2022-12-31T17:08:43;102541.00;;;19.24
71649;BMP180;59492;45.638;11.714;2022-12-31T17:16:38;102543.40;;;19.12
71649;BMP180;59492;45.638;11.714;2022-12-31T17:19:05;102549.40;;;19.10
71649;BMP180;59492;45.638;11.714;2022-12-31T17:21:32;102544.20;;;19.10
71649;BMP180;59492;45.638;11.714;2022-12-31T17:24:03;102544.80;;;19.14
71649;BMP180;59492;45.638;11.714;2022-12-31T17:26:32;102545.60;;;19.20
71649;BMP180;59492;45.638;11.714;2022-12-31T17:29:00;102546.20;;;19.14
71649;BMP180;59492;45.638;11.714;2022-12-31T17:36:37;102541.80;;;19.06
71649;BMP180;59492;45.638;11.714;2022-12-31T17:39:19;102545.20;;;19.08
71649;BMP180;59492;45.638;11.714;2022-12-31T17:41:46;102552.60;;;19.00
71649;BMP180;59492;45.638;11.714;2022-12-31T17:44:24;102553.60;;;19.10
71649;BMP180;59492;45.638;11.714;2022-12-31T17:46:51;102556.00;;;19.10
71649;BMP180;59492;45.638;11.714;2022-12-31T17:49:27;102557.20;;;19.06
71649;BMP180;59492;45.638;11.714;2022-12-31T17:51:54;102560.40;;;19.00
71649;BMP180;59492;45.638;11.714;2022-12-31T17:54:19;102560.00;;;19.00
71649;BMP180;59492;45.638;11.714;2022-12-31T17:56:45;102559.40;;;19.00
71649;BMP180;59492;45.638;11.714;2022-12-31T17:59:16;102562.20;;;19.00
71649;BMP180;59492;45.638;11.714;2022-12-31T18:01:42;102565.20;;;19.00
71649;BMP180;59492;45.638;11.714;2022-12-31T18:04:11;102568.80;;;19.00
71649;BMP180;59492;45.638;11.714;2022-12-31T18:06:38;102572.00;;;19.00
71649;BMP180;59492;45.638;11.714;2022-12-31T18:09:03;102572.60;;;19.00
71649;BMP180;59492;45.638;11.714;2022-12-31T18:11:29;102576.40;;;18.96
71649;BMP180;59492;45.638;11.714;2022-12-31T18:13:54;102577.60;;;18.92
71649;BMP180;59492;45.638;11.714;2022-12-31T18:16:20;102583.80;;;18.90